Airfield :
LOGIN :

Register | Disclaimer

   EN    FR    IT 

 










Legend :    VFR   Marginal VFR   IFR   Intensive IFR   Very Intensive IFR
Visi :
Ceiling :
>= 8 km
>= 3000ft
5 to 8 km
1000 to 3000 ft
1500m to 5 km
500 to 1000 ft
800 to 1500m
200 to 500 ft
< 800m
< 200 ft
Symbols :   Thunderstorms  Fog  Heavy snow  Heavy precipitations  Wind > 20 kt
SIGMETs :     Misc.  Thunderstorms  Icing  Turbulence  Mountain Waves  Volcanic Ashes







- Airport Elevation : 1766 ft


ETHL - Laupheim AB

CURRENT METAR :
  • 101320Z 26011KT 9999 SCT025 BKN050 04/M00 Q1021 BLU BLU TEMPO WHT

EXPIRED METARs :
  • 101230Z 30007KT 7000 SCT020 BKN050 03/M00 Q1021 WHT BLU TEMPO WHT
  • 101220Z 28012KT 7000 SCT020 BKN050 04/M01 Q1021 WHT BLU TEMPO WHT
  • 101120Z 27012KT 9999 FEW020 SCT050 04/00 Q1021 BLU+BLU TEMPO WHT

TAF TAF ETHL
Valid from the 10 at 12:00 until the 10 at 21:00 UTC


101117Z 1012/1021 26012KT 9999 NSW FEW004 SCT012TCU BKN050
TEMPO 1012/1013 27015G25KT 6000 SHRASN FEW002 SCT006 BKN010TCU
BECMG 1015/1017 26010KT 4000 -SN SCT008 BKN015
No reported NOTAMs for that airfield.



MET'MAP, your aeronautical weather chart ! - Copyright ORBIFLY December 2007 - Disclaimer

ORBIFLY MET'MAP TEAM :

Programming & Development : Alexandra Zaïnal
Concept & Development : Baudouin d'Aumeries
Co-Development & Prog : Marc-Olivier Méhu
Technical & hardware support : Manuel Goepfert

Contact : metmap@orbifly.com




SOURCES & CREDITS :

   NOAA